Time;durP1;ratioP1;P1;durP2;ratioP2;P2;SDS_P1;SDS_P2;PMS_P1;PMS_P2;Temp;Humidity;BMP_temperature;BMP_pressure;BME280_temperature;BME280_humidity;BME280_pressure;Samples;Min_cycle;Max_cycle;Signal;HPM_P1;HPM_P2
2021/12/07 00:01:01;;;;;;;;;;;3.50;96.60;;;;;;5002240;28;20632;-78
2021/12/07 00:03:28;;;;;;;;;;;3.50;96.50;;;;;;4997031;28;19948;-77
2021/12/07 00:05:54;;;;;;;;;;;3.50;96.50;;;;;;4999776;28;19921;-76
2021/12/07 00:08:21;;;;;;;;;;;3.50;96.60;;;;;;4997068;28;19925;-77
2021/12/07 00:10:50;;;;;;;;;;;3.50;96.50;;;;;;5006851;28;19933;-76
2021/12/07 00:13:17;;;;;;;;;;;3.50;96.50;;;;;;5000344;28;19984;-77
2021/12/07 00:15:44;;;;;;;;;;;3.50;96.50;;;;;;4997491;28;20515;-76
2021/12/07 00:30:28;;;;;;;;;;;3.50;96.50;;;;;;4992434;28;19980;-76
2021/12/07 00:45:09;;;;;;;;;;;3.50;96.50;;;;;;5001198;28;19927;-76
2021/12/07 00:47:37;;;;;;;;;;;3.50;96.50;;;;;;5005963;28;20048;-76
2021/12/07 00:50:06;;;;;;;;;;;3.50;96.60;;;;;;5004845;28;19934;-77
2021/12/07 00:52:32;;;;;;;;;;;3.50;96.60;;;;;;5001261;28;19932;-77
2021/12/07 00:54:59;;;;;;;;;;;3.40;96.60;;;;;;5000160;28;19929;-76
2021/12/07 00:57:25;;;;;;;;;;;3.40;96.60;;;;;;5005132;28;19929;-76
2021/12/07 00:59:52;;;;;;;;;;;3.50;96.80;;;;;;5003181;28;20091;-76
2021/12/07 01:02:19;;;;;;;;;;;3.50;96.60;;;;;;5006358;28;19955;-76
2021/12/07 01:04:52;;;;;;;;;;;3.50;96.60;;;;;;5002934;28;20329;-76
2021/12/07 01:07:38;;;;;;;;;;;3.50;96.70;;;;;;5003147;28;19932;-76
2021/12/07 01:26:33;;;;;;;;;;;3.40;96.70;;;;;;5004390;28;19971;-76
2021/12/07 01:28:59;;;;;;;;;;;3.40;96.70;;;;;;5000928;28;19929;-76
2021/12/07 01:31:32;;;;;;;;;;;3.40;96.70;;;;;;5004857;28;19987;-77
2021/12/07 01:34:15;;;;;;;;;;;3.40;96.70;;;;;;5002663;28;20335;-76
2021/12/07 01:37:10;;;;;;;;;;;3.40;96.70;;;;;;5002894;28;19925;-76
2021/12/07 01:39:58;;;;;;;;;;;3.40;96.70;;;;;;4996554;28;20019;-76
2021/12/07 01:45:37;;;;;;;;;;;3.40;96.80;;;;;;4997814;28;20007;-77
2021/12/07 01:49:34;;;;;;;;;;;3.40;96.80;;;;;;5005964;28;19925;-76
2021/12/07 01:51:04;;;;;;;;;;;3.40;96.80;;;;;;5008253;28;19925;-76
2021/12/07 02:01:45;;;;;;;;;;;3.40;96.90;;;;;;5002721;28;20363;-77
2021/12/07 02:04:12;;;;;;;;;;;3.40;96.80;;;;;;5001928;28;20328;-76
2021/12/07 02:06:38;;;;;;;;;;;3.40;96.90;;;;;;5006902;28;19929;-77
2021/12/07 02:09:08;;;;;;;;;;;3.40;96.90;;;;;;5005910;28;19926;-77
2021/12/07 02:11:35;;;;;;;;;;;3.40;96.90;;;;;;5010231;28;19925;-76
2021/12/07 02:14:14;;;;;;;;;;;3.40;96.90;;;;;;5002481;28;19925;-77
2021/12/07 02:16:41;;;;;;;;;;;3.40;96.90;;;;;;5007741;28;19932;-76
2021/12/07 02:19:08;;;;;;;;;;;3.40;96.90;;;;;;5004814;28;19926;-76
2021/12/07 02:21:36;;;;;;;;;;;3.40;96.90;;;;;;5009695;28;19925;-76
2021/12/07 02:24:02;;;;;;;;;;;3.40;97.00;;;;;;5009028;28;19932;-77
2021/12/07 02:26:29;;;;;;;;;;;3.40;97.00;;;;;;5010473;28;19948;-77
2021/12/07 02:28:57;;;;;;;;;;;3.40;97.00;;;;;;5005694;28;19948;-77
2021/12/07 02:31:23;;;;;;;;;;;3.40;97.30;;;;;;5006660;28;19925;-77
2021/12/07 02:33:50;;;;;;;;;;;3.40;97.00;;;;;;5004800;28;19930;-77
2021/12/07 02:36:17;;;;;;;;;;;3.40;97.00;;;;;;5007047;28;19932;-77
2021/12/07 02:38:45;;;;;;;;;;;3.40;97.00;;;;;;5008202;28;19925;-77
2021/12/07 02:41:11;;;;;;;;;;;3.40;97.10;;;;;;5002663;28;19925;-77
2021/12/07 02:43:38;;;;;;;;;;;3.40;97.10;;;;;;4999130;28;19933;-76
2021/12/07 02:46:04;;;;;;;;;;;3.40;97.10;;;;;;5000879;28;19926;-77
2021/12/07 02:48:31;;;;;;;;;;;3.40;97.10;;;;;;5011910;28;19933;-77
2021/12/07 02:50:57;;;;;;;;;;;3.40;97.10;;;;;;5000385;28;19936;-77
2021/12/07 02:53:26;;;;;;;;;;;3.50;97.20;;;;;;5004015;28;19932;-77
2021/12/07 02:55:55;;;;;;;;;;;3.40;97.20;;;;;;5002603;28;20413;-77
2021/12/07 02:58:21;;;;;;;;;;;3.40;97.20;;;;;;5003894;28;19921;-77
2021/12/07 03:00:55;;;;;;;;;;;3.40;97.20;;;;;;5009735;28;19936;-77
2021/12/07 03:03:22;;;;;;;;;;;3.40;97.20;;;;;;5001607;28;20408;-78
2021/12/07 03:05:58;;;;;;;;;;;3.40;97.20;;;;;;5002474;28;19932;-77
2021/12/07 03:27:48;;;;;;;;;;;3.40;97.30;;;;;;5000481;28;19928;-77
2021/12/07 03:30:15;;;;;;;;;;;3.50;97.30;;;;;;5003353;28;20451;-77
2021/12/07 03:32:42;;;;;;;;;;;3.50;97.30;;;;;;5005973;28;20690;-77
2021/12/07 03:35:08;;;;;;;;;;;3.50;97.30;;;;;;5004187;28;19925;-77
2021/12/07 03:37:35;;;;;;;;;;;3.50;97.30;;;;;;5000278;28;19932;-77
2021/12/07 03:40:01;;;;;;;;;;;3.40;97.30;;;;;;5010495;28;19932;-77
2021/12/07 03:42:28;;;;;;;;;;;3.40;97.30;;;;;;5005442;28;19929;-77
2021/12/07 03:44:56;;;;;;;;;;;3.50;97.40;;;;;;5005065;28;19928;-77
2021/12/07 03:47:23;;;;;;;;;;;3.50;97.30;;;;;;5008816;28;19936;-76
2021/12/07 03:49:49;;;;;;;;;;;3.40;97.30;;;;;;5001380;28;20429;-77
2021/12/07 03:52:16;;;;;;;;;;;3.50;97.30;;;;;;5007764;28;19947;-77
2021/12/07 03:54:42;;;;;;;;;;;3.50;97.30;;;;;;5005571;28;20723;-77
2021/12/07 03:57:09;;;;;;;;;;;3.50;97.30;;;;;;5001373;28;19925;-77
2021/12/07 03:59:35;;;;;;;;;;;3.40;97.30;;;;;;5007431;28;19928;-77
2021/12/07 04:02:04;;;;;;;;;;;3.50;97.40;;;;;;5002685;28;20625;-77
2021/12/07 04:04:30;;;;;;;;;;;3.40;97.30;;;;;;5007612;28;19929;-77
2021/12/07 04:06:57;;;;;;;;;;;3.50;97.30;;;;;;5005110;28;19960;-76
2021/12/07 04:09:23;;;;;;;;;;;3.50;97.40;;;;;;5001706;28;20304;-76
2021/12/07 04:11:50;;;;;;;;;;;3.50;97.40;;;;;;5004980;28;19925;-77
2021/12/07 04:14:16;;;;;;;;;;;3.50;97.40;;;;;;5000563;28;19925;-77
2021/12/07 04:16:43;;;;;;;;;;;3.50;97.40;;;;;;5002236;28;19925;-77
2021/12/07 04:19:11;;;;;;;;;;;3.50;97.40;;;;;;5001796;28;19921;-77
2021/12/07 04:21:37;;;;;;;;;;;3.50;97.30;;;;;;5002332;28;19925;-77
2021/12/07 04:24:04;;;;;;;;;;;3.50;97.30;;;;;;5004037;28;19925;-78
2021/12/07 04:26:31;;;;;;;;;;;3.50;97.30;;;;;;5006191;28;20312;-76
2021/12/07 04:28:58;;;;;;;;;;;3.50;97.30;;;;;;4999751;28;20360;-77
2021/12/07 04:31:24;;;;;;;;;;;3.50;97.30;;;;;;5005179;28;20643;-78
2021/12/07 04:33:51;;;;;;;;;;;3.50;97.30;;;;;;5004477;28;20120;-77
2021/12/07 04:36:19;;;;;;;;;;;3.50;97.30;;;;;;5006931;28;19932;-77
2021/12/07 04:38:45;;;;;;;;;;;3.40;97.30;;;;;;5004888;28;19936;-77
2021/12/07 04:41:12;;;;;;;;;;;3.50;97.30;;;;;;5001817;28;19929;-77
2021/12/07 04:43:39;;;;;;;;;;;3.40;97.30;;;;;;5003539;28;19929;-77
2021/12/07 04:46:11;;;;;;;;;;;3.50;97.30;;;;;;5007209;28;19925;-76
2021/12/07 04:59:50;;;;;;;;;;;3.50;97.30;;;;;;4999373;28;19929;-76
2021/12/07 05:02:18;;;;;;;;;;;3.50;97.40;;;;;;5010631;28;20389;-76
2021/12/07 05:04:45;;;;;;;;;;;3.50;97.40;;;;;;4999686;28;19925;-75
2021/12/07 05:07:21;;;;;;;;;;;3.50;97.40;;;;;;5001132;28;19933;-76
2021/12/07 05:10:12;;;;;;;;;;;3.50;97.40;;;;;;5007387;28;19983;-77
2021/12/07 05:12:54;;;;;;;;;;;3.50;97.50;;;;;;5003825;28;19929;-76
2021/12/07 05:15:27;;;;;;;;;;;3.50;97.50;;;;;;5000053;28;19991;-76
2021/12/07 05:18:04;;;;;;;;;;;3.50;97.50;;;;;;5001351;28;19941;-77
2021/12/07 05:34:31;;;;;;;;;;;3.50;97.50;;;;;;5009405;28;20427;-77
2021/12/07 05:39:59;;;;;;;;;;;3.60;97.60;;;;;;4996226;28;20030;-77
2021/12/07 05:42:25;;;;;;;;;;;3.60;97.60;;;;;;5008085;28;19932;-76
2021/12/07 05:44:53;;;;;;;;;;;3.60;97.60;;;;;;5004780;28;19929;-76
2021/12/07 05:47:19;;;;;;;;;;;3.60;97.60;;;;;;5004544;28;19929;-76
2021/12/07 05:49:46;;;;;;;;;;;3.60;97.60;;;;;;5002597;28;19960;-77
2021/12/07 05:52:12;;;;;;;;;;;3.60;97.60;;;;;;5015274;28;19925;-77
2021/12/07 05:54:39;;;;;;;;;;;3.60;97.60;;;;;;5002853;28;19929;-77
2021/12/07 05:57:07;;;;;;;;;;;3.60;97.60;;;;;;5003850;28;20695;-76
2021/12/07 05:59:34;;;;;;;;;;;3.60;97.60;;;;;;5004403;28;19932;-77
2021/12/07 06:02:00;;;;;;;;;;;3.60;97.90;;;;;;5007034;28;19929;-76
2021/12/07 06:04:28;;;;;;;;;;;3.60;97.60;;;;;;5007363;28;19971;-76
2021/12/07 06:06:55;;;;;;;;;;;3.60;97.60;;;;;;5004567;28;19925;-76
2021/12/07 06:09:21;;;;;;;;;;;3.60;97.60;;;;;;5003134;28;21113;-76
2021/12/07 06:11:50;;;;;;;;;;;3.60;97.70;;;;;;5005557;28;20676;-76
2021/12/07 06:14:19;;;;;;;;;;;3.60;97.70;;;;;;5000450;28;19928;-76
2021/12/07 06:16:46;;;;;;;;;;;3.60;97.70;;;;;;5007020;28;19925;-76
2021/12/07 06:19:12;;;;;;;;;;;3.60;97.70;;;;;;5003082;28;19945;-76
2021/12/07 06:21:39;;;;;;;;;;;3.70;97.70;;;;;;5008655;28;19936;-76
2021/12/07 06:24:06;;;;;;;;;;;3.70;97.70;;;;;;5002279;28;19930;-75
2021/12/07 06:26:33;;;;;;;;;;;3.70;97.70;;;;;;5012471;28;20434;-76
2021/12/07 06:29:00;;;;;;;;;;;3.70;97.70;;;;;;5007262;28;19930;-76
2021/12/07 06:31:28;;;;;;;;;;;3.60;97.70;;;;;;5005881;28;19925;-76
2021/12/07 06:33:54;;;;;;;;;;;3.70;97.70;;;;;;5003578;28;19925;-76
2021/12/07 06:36:24;;;;;;;;;;;3.70;97.70;;;;;;5006423;28;19925;-76
2021/12/07 06:38:50;;;;;;;;;;;3.70;97.70;;;;;;5003817;28;19925;-76
2021/12/07 06:41:17;;;;;;;;;;;3.70;97.70;;;;;;5002115;28;20326;-76
2021/12/07 06:43:44;;;;;;;;;;;3.70;97.60;;;;;;5009850;28;19929;-75
2021/12/07 06:46:11;;;;;;;;;;;3.70;97.60;;;;;;5003620;28;19941;-75
2021/12/07 06:48:39;;;;;;;;;;;3.60;97.60;;;;;;5010290;28;20402;-78
2021/12/07 06:51:06;;;;;;;;;;;3.70;97.60;;;;;;5003608;28;19987;-77
2021/12/07 06:53:36;;;;;;;;;;;3.60;97.80;;;;;;5004658;28;19967;-77
2021/12/07 06:56:03;;;;;;;;;;;3.60;97.80;;;;;;5003570;28;19928;-77
2021/12/07 06:58:30;;;;;;;;;;;3.60;97.90;;;;;;5001890;28;19930;-77
2021/12/07 07:00:56;;;;;;;;;;;3.60;97.90;;;;;;5001806;28;19932;-77
2021/12/07 07:03:23;;;;;;;;;;;3.60;97.90;;;;;;5006099;28;19936;-77
2021/12/07 07:05:51;;;;;;;;;;;3.60;97.80;;;;;;5002858;28;19936;-77
2021/12/07 07:08:18;;;;;;;;;;;3.60;97.80;;;;;;5005721;28;20376;-77
2021/12/07 07:10:44;;;;;;;;;;;3.60;97.80;;;;;;5003540;28;19932;-76
2021/12/07 07:13:12;;;;;;;;;;;3.60;97.80;;;;;;5004119;28;19932;-77
2021/12/07 07:15:39;;;;;;;;;;;3.60;97.80;;;;;;5003409;28;20432;-76
2021/12/07 07:18:05;;;;;;;;;;;3.60;97.80;;;;;;5002607;28;19968;-77
2021/12/07 07:20:32;;;;;;;;;;;3.60;97.80;;;;;;5001895;28;19929;-77
2021/12/07 07:23:00;;;;;;;;;;;3.60;97.80;;;;;;5015407;28;19932;-76
2021/12/07 07:25:26;;;;;;;;;;;3.60;97.80;;;;;;4998697;28;20369;-77
2021/12/07 07:27:53;;;;;;;;;;;3.60;98.00;;;;;;5004607;28;20309;-76
2021/12/07 07:30:20;;;;;;;;;;;3.70;98.20;;;;;;4997644;28;19932;-76
2021/12/07 07:32:47;;;;;;;;;;;3.70;98.50;;;;;;5005360;28;19932;-76
2021/12/07 07:35:15;;;;;;;;;;;3.80;98.70;;;;;;5002439;28;19929;-76
2021/12/07 07:37:42;;;;;;;;;;;3.80;98.80;;;;;;5003708;28;20659;-76
2021/12/07 07:40:12;;;;;;;;;;;3.90;99.00;;;;;;5001115;28;19929;-76
2021/12/07 07:42:38;;;;;;;;;;;3.90;99.10;;;;;;5003766;28;19932;-77
2021/12/07 07:45:06;;;;;;;;;;;4.00;99.20;;;;;;4998176;28;20634;-76
2021/12/07 07:47:32;;;;;;;;;;;4.00;99.30;;;;;;5003744;28;19929;-76
2021/12/07 07:49:59;;;;;;;;;;;4.00;99.40;;;;;;4999577;28;19925;-76
2021/12/07 07:52:25;;;;;;;;;;;4.10;99.40;;;;;;5003855;28;20324;-76
2021/12/07 07:54:52;;;;;;;;;;;4.10;99.40;;;;;;4996490;28;19947;-76
2021/12/07 07:57:20;;;;;;;;;;;4.10;99.40;;;;;;4995397;28;19952;-76
2021/12/07 07:59:46;;;;;;;;;;;4.20;99.50;;;;;;4998875;28;19925;-76
2021/12/07 08:02:13;;;;;;;;;;;4.20;99.50;;;;;;4997882;28;19929;-76
2021/12/07 08:04:40;;;;;;;;;;;4.20;99.40;;;;;;4997506;28;20452;-77
2021/12/07 08:07:06;;;;;;;;;;;4.20;99.40;;;;;;5000663;28;19932;-76
2021/12/07 08:09:33;;;;;;;;;;;4.20;99.30;;;;;;5001711;28;19936;-76
2021/12/07 08:11:59;;;;;;;;;;;4.20;99.30;;;;;;5004514;28;19940;-76
2021/12/07 08:14:27;;;;;;;;;;;4.20;99.30;;;;;;5003319;28;19956;-76
2021/12/07 08:16:54;;;;;;;;;;;4.20;99.20;;;;;;4996120;28;19925;-76
2021/12/07 08:19:20;;;;;;;;;;;4.20;99.20;;;;;;4998989;28;19925;-76
2021/12/07 08:21:48;;;;;;;;;;;4.20;99.10;;;;;;5001913;28;19929;-76
2021/12/07 08:24:14;;;;;;;;;;;4.20;99.00;;;;;;4998924;28;20086;-76
2021/12/07 08:26:41;;;;;;;;;;;4.20;99.00;;;;;;5003518;28;19936;-76
2021/12/07 08:29:08;;;;;;;;;;;4.30;99.00;;;;;;5002920;28;19948;-76
2021/12/07 08:31:36;;;;;;;;;;;4.30;98.90;;;;;;5002731;28;19925;-76
2021/12/07 08:34:03;;;;;;;;;;;4.30;98.80;;;;;;4998519;28;20389;-76
2021/12/07 08:36:29;;;;;;;;;;;4.20;98.80;;;;;;5001751;28;19967;-75
2021/12/07 08:38:56;;;;;;;;;;;4.20;98.70;;;;;;4993521;28;19952;-77
2021/12/07 08:41:23;;;;;;;;;;;4.20;98.70;;;;;;4992150;28;19925;-77
2021/12/07 08:43:50;;;;;;;;;;;4.30;98.60;;;;;;4999599;28;20880;-77
2021/12/07 08:46:17;;;;;;;;;;;4.20;98.50;;;;;;5006385;28;19936;-77
2021/12/07 08:48:45;;;;;;;;;;;4.30;98.50;;;;;;5000356;28;19932;-77
2021/12/07 08:51:12;;;;;;;;;;;4.30;98.50;;;;;;4999995;28;20460;-78
2021/12/07 08:53:45;;;;;;;;;;;4.30;98.50;;;;;;4997827;28;19925;-77
2021/12/07 09:01:41;;;;;;;;;;;4.30;98.40;;;;;;4996757;28;20384;-76
2021/12/07 09:04:10;;;;;;;;;;;4.30;98.40;;;;;;4996905;28;19925;-76
2021/12/07 09:06:37;;;;;;;;;;;4.30;98.40;;;;;;4995785;28;19926;-76
2021/12/07 09:09:05;;;;;;;;;;;4.30;98.40;;;;;;4993911;28;19925;-78
2021/12/07 09:11:31;;;;;;;;;;;4.30;98.40;;;;;;4997489;28;19929;-77
2021/12/07 09:13:58;;;;;;;;;;;4.30;98.40;;;;;;4999028;28;19925;-76
2021/12/07 09:16:24;;;;;;;;;;;4.30;98.30;;;;;;4999965;28;19925;-76
2021/12/07 09:18:51;;;;;;;;;;;4.30;98.30;;;;;;4998485;28;19922;-76
2021/12/07 09:21:20;;;;;;;;;;;4.30;98.30;;;;;;4994385;28;19929;-77
2021/12/07 09:23:50;;;;;;;;;;;4.30;98.30;;;;;;4998941;28;19925;-76
2021/12/07 09:26:16;;;;;;;;;;;4.30;98.30;;;;;;4999005;28;20044;-75
2021/12/07 09:28:44;;;;;;;;;;;4.30;98.20;;;;;;4992642;28;20693;-76
2021/12/07 09:31:11;;;;;;;;;;;4.30;98.20;;;;;;5000468;28;19935;-78
2021/12/07 09:33:38;;;;;;;;;;;4.30;98.20;;;;;;4997279;28;19926;-77
2021/12/07 09:36:06;;;;;;;;;;;4.40;98.20;;;;;;4996702;28;19937;-81
2021/12/07 09:38:34;;;;;;;;;;;4.40;98.10;;;;;;5005501;28;19925;-79
2021/12/07 09:41:00;;;;;;;;;;;4.30;98.00;;;;;;5002915;28;19926;-77
2021/12/07 09:43:27;;;;;;;;;;;4.40;98.10;;;;;;4998816;28;19922;-77
2021/12/07 09:45:53;;;;;;;;;;;4.40;98.10;;;;;;5003369;28;19928;-77
2021/12/07 09:48:20;;;;;;;;;;;4.40;98.00;;;;;;4999145;28;19925;-76
2021/12/07 09:50:49;;;;;;;;;;;4.40;98.00;;;;;;4996247;28;19930;-76
2021/12/07 09:53:16;;;;;;;;;;;4.40;98.00;;;;;;4995142;28;19926;-78
2021/12/07 09:55:45;;;;;;;;;;;4.40;98.00;;;;;;5000852;28;19925;-76
2021/12/07 09:58:13;;;;;;;;;;;4.40;98.00;;;;;;4996738;28;19929;-76
2021/12/07 10:00:40;;;;;;;;;;;4.40;98.00;;;;;;4997802;28;19925;-78
2021/12/07 10:03:06;;;;;;;;;;;4.40;97.90;;;;;;5001944;28;19932;-76
2021/12/07 10:05:34;;;;;;;;;;;4.50;97.90;;;;;;4997422;28;20381;-77
2021/12/07 10:08:02;;;;;;;;;;;4.40;97.90;;;;;;5002520;28;20389;-80
2021/12/07 10:10:30;;;;;;;;;;;4.50;97.90;;;;;;5003443;28;19952;-77
2021/12/07 10:12:58;;;;;;;;;;;4.40;97.80;;;;;;5004566;28;20628;-76
2021/12/07 10:15:25;;;;;;;;;;;4.40;97.80;;;;;;4998313;28;19930;-78
2021/12/07 10:18:07;;;;;;;;;;;4.40;97.80;;;;;;5001300;28;19952;-77
2021/12/07 10:20:38;;;;;;;;;;;4.50;97.80;;;;;;4997991;28;19925;-77
2021/12/07 10:23:06;;;;;;;;;;;4.50;97.80;;;;;;5006637;28;19936;-80
2021/12/07 10:25:33;;;;;;;;;;;4.50;97.70;;;;;;5006174;28;19948;-77
2021/12/07 10:28:01;;;;;;;7.53;3.15;;;4.50;97.70;;;;;;5005906;28;20457;-79
2021/12/07 10:30:28;;;;;;;4.57;2.67;;;4.50;97.70;;;;;;4996861;28;20058;-79
2021/12/07 10:33:01;;;;;;;7.63;2.42;;;4.50;97.80;;;;;;5003829;28;20052;-77
2021/12/07 10:35:30;;;;;;;4.28;2.33;;;4.50;97.70;;;;;;5006682;28;20061;-81
2021/12/07 10:38:11;;;;;;;5.28;2.30;;;4.50;97.70;;;;;;5003663;28;20057;-78
2021/12/07 10:40:55;;;;;;;4.25;2.42;;;4.50;97.50;;;;;;5004659;28;20060;-77
2021/12/07 10:43:41;;;;;;;3.65;2.33;;;4.60;97.50;;;;;;4997249;28;20441;-75
2021/12/07 10:46:27;;;;;;;4.23;2.70;;;4.60;97.40;;;;;;5003199;28;20057;-77
2021/12/07 10:58:30;;;;;;;4.15;2.30;;;4.60;97.30;;;;;;4964496;28;20144;-76
2021/12/07 11:00:58;;;;;;;3.63;2.38;;;4.60;97.20;;;;;;4998775;28;20185;-75
2021/12/07 11:03:25;;;;;;;4.90;2.67;;;4.70;97.20;;;;;;4998938;28;20046;-78
2021/12/07 11:05:54;;;;;;;4.53;2.78;;;4.70;97.20;;;;;;5005522;28;20056;-76
2021/12/07 11:08:23;;;;;;;5.35;2.47;;;4.70;97.20;;;;;;5002357;28;20057;-77
2021/12/07 11:10:51;;;;;;;3.40;2.20;;;4.70;97.10;;;;;;4993157;28;20073;-77
2021/12/07 11:13:23;;;;;;;4.72;2.33;;;4.70;97.10;;;;;;4999830;28;20049;-77
2021/12/07 11:15:54;;;;;;;6.75;2.45;;;4.70;97.00;;;;;;5003822;28;20522;-75
2021/12/07 11:18:25;;;;;;;5.13;2.55;;;4.70;96.90;;;;;;4998084;28;20045;-74
2021/12/07 11:20:53;;;;;;;5.35;2.38;;;4.80;96.90;;;;;;5004037;28;20058;-73
2021/12/07 11:23:26;;;;;;;6.53;2.58;;;4.70;96.80;;;;;;5001336;28;20058;-76
2021/12/07 11:29:39;;;;;;;5.60;2.42;;;4.70;96.80;;;;;;5006079;28;20053;-76
2021/12/07 11:31:56;;;;;;;4.88;2.70;;;4.80;96.70;;;;;;4960784;28;20116;-74
2021/12/07 11:45:33;;;;;;;5.32;2.33;;;4.90;96.70;;;;;;5007416;28;20051;-80
2021/12/07 11:48:03;;;;;;;4.13;2.42;;;4.90;96.60;;;;;;5026234;28;20117;-79
2021/12/07 11:50:32;;;;;;;5.03;2.45;;;4.90;96.50;;;;;;5025997;28;20060;-78
2021/12/07 11:53:01;;;;;;;4.35;2.45;;;4.90;96.50;;;;;;5026345;28;20054;-79
2021/12/07 11:55:29;;;;;;;3.22;2.25;;;4.90;96.50;;;;;;5022822;28;20057;-80
2021/12/07 11:57:56;;;;;;;3.58;2.25;;;4.90;96.50;;;;;;5018103;28;20061;-79
2021/12/07 12:00:28;;;;;;;3.80;2.20;;;4.90;96.50;;;;;;5020431;28;20765;-80
2021/12/07 12:02:56;;;;;;;4.95;2.25;;;5.00;96.50;;;;;;5015034;28;20495;-78
2021/12/07 12:05:23;;;;;;;3.95;2.40;;;5.00;96.50;;;;;;5018401;28;20053;-78
2021/12/07 12:07:50;;;;;;;4.53;2.15;;;5.00;96.50;;;;;;5019554;28;20053;-78
2021/12/07 12:10:20;;;;;;;3.42;2.25;;;5.00;96.50;;;;;;5017151;28;20950;-79
2021/12/07 12:13:04;;;;;;;4.18;2.30;;;5.00;96.50;;;;;;5018400;28;20136;-79
2021/12/07 12:15:42;;;;;;;2.83;2.05;;;5.00;96.40;;;;;;5017499;28;20819;-81
2021/12/07 12:18:15;;;;;;;4.15;2.20;;;5.00;96.40;;;;;;5018695;28;20096;-79
2021/12/07 12:20:56;;;;;;;3.70;1.90;;;5.00;96.40;;;;;;5021208;28;20084;-80
2021/12/07 12:23:33;;;;;;;2.72;2.20;;;5.00;96.40;;;;;;5019294;28;20063;-78
2021/12/07 12:26:03;;;;;;;3.97;2.10;;;5.10;96.40;;;;;;5015149;28;20049;-79
2021/12/07 12:28:35;;;;;;;2.30;1.90;;;5.10;96.40;;;;;;5018905;28;20084;-79
2021/12/07 12:31:05;;;;;;;2.67;2.08;;;5.10;96.30;;;;;;5012558;28;20145;-79
2021/12/07 12:33:48;;;;;;;4.03;2.10;;;5.20;96.30;;;;;;5018504;28;20060;-80
2021/12/07 12:36:16;;;;;;;7.40;2.50;;;5.20;96.20;;;;;;5019259;28;20100;-79
2021/12/07 12:38:48;;;;;;;3.88;2.00;;;5.20;96.10;;;;;;5022742;28;20053;-78
2021/12/07 12:41:17;;;;;;;3.33;1.77;;;5.20;95.90;;;;;;5018482;28;20049;-81
2021/12/07 12:43:50;;;;;;;3.83;1.98;;;5.30;95.70;;;;;;5019698;28;20057;-79
2021/12/07 12:46:19;;;;;;;3.20;1.67;;;5.30;95.60;;;;;;5013677;28;20117;-80
2021/12/07 12:48:49;;;;;;;2.13;1.75;;;5.30;95.50;;;;;;5014104;28;20058;-78
2021/12/07 12:51:17;;;;;;;4.13;1.98;;;5.30;95.40;;;;;;5015366;28;20668;-79
2021/12/07 12:53:45;;;;;;;2.70;1.63;;;5.40;95.30;;;;;;5018491;28;20064;-79
2021/12/07 12:56:14;;;;;;;4.55;2.30;;;5.40;95.30;;;;;;5019489;28;21486;-80
2021/12/07 12:58:44;;;;;;;3.53;1.90;;;5.30;95.20;;;;;;5018659;28;20442;-80
2021/12/07 13:01:20;;;;;;;5.05;1.80;;;5.40;95.10;;;;;;5015175;28;20802;-79
2021/12/07 13:03:56;;;;;;;2.10;1.60;;;5.40;95.00;;;;;;5019696;28;20054;-79
2021/12/07 13:06:44;;;;;;;2.78;1.98;;;5.40;94.90;;;;;;5019265;28;20073;-78
2021/12/07 13:09:22;;;;;;;2.95;1.80;;;5.40;94.80;;;;;;5025706;28;20060;-80
2021/12/07 13:11:53;;;;;;;2.67;1.60;;;5.40;94.90;;;;;;5019716;28;20433;-78
2021/12/07 13:14:33;;;;;;;5.57;2.15;;;5.40;95.00;;;;;;5019389;28;20169;-79
2021/12/07 13:17:06;;;;;;;5.65;2.00;;;5.40;95.10;;;;;;5016267;28;20065;-79
2021/12/07 13:20:13;;;;;;;2.72;1.63;;;5.40;95.10;;;;;;5020914;28;20049;-80
2021/12/07 13:22:43;;;;;;;3.13;1.88;;;5.40;95.20;;;;;;5020453;28;20464;-79
2021/12/07 13:25:12;;;;;;;3.55;1.98;;;5.40;95.20;;;;;;5022769;28;20081;-78
2021/12/07 13:28:02;;;;;;;3.20;1.77;;;5.40;95.20;;;;;;5018167;28;20041;-79
2021/12/07 13:30:38;;;;;;;2.63;1.55;;;5.40;95.20;;;;;;5015761;28;20055;-79
2021/12/07 13:33:06;;;;;;;3.65;1.90;;;5.40;95.30;;;;;;5021295;28;20057;-79
2021/12/07 13:35:33;;;;;;;3.03;1.88;;;5.40;95.30;;;;;;5015231;28;20101;-80
2021/12/07 13:38:15;;;;;;;2.85;1.80;;;5.30;95.20;;;;;;5019436;28;20056;-79
2021/12/07 13:40:42;;;;;;;3.65;1.95;;;5.30;95.20;;;;;;5016411;28;20996;-79
2021/12/07 13:43:09;;;;;;;4.20;1.90;;;5.40;95.20;;;;;;5018534;28;20053;-80
2021/12/07 13:45:36;;;;;;;4.28;2.00;;;5.40;95.30;;;;;;5014427;28;20076;-81
2021/12/07 13:48:04;;;;;;;4.20;1.98;;;5.40;95.20;;;;;;5019410;28;20138;-80
2021/12/07 13:50:32;;;;;;;5.15;1.95;;;5.50;95.20;;;;;;5016487;28;20084;-80
2021/12/07 13:53:01;;;;;;;2.75;1.70;;;5.50;95.20;;;;;;5019581;28;20060;-78
2021/12/07 13:55:30;;;;;;;2.25;1.63;;;5.60;95.10;;;;;;5011827;28;20057;-80
2021/12/07 13:58:00;;;;;;;4.40;1.70;;;5.70;95.00;;;;;;5011694;28;20053;-78
2021/12/07 14:00:28;;;;;;;3.83;1.90;;;5.80;94.80;;;;;;5011133;28;20611;-79
2021/12/07 14:02:57;;;;;;;2.97;1.80;;;5.90;94.60;;;;;;5020414;28;20049;-79
2021/12/07 14:05:27;;;;;;;3.58;1.77;;;5.90;94.50;;;;;;5021782;28;20076;-77
2021/12/07 14:07:56;;;;;;;2.90;2.08;;;6.00;94.40;;;;;;5022156;28;20590;-77
2021/12/07 14:10:27;;;;;;;3.28;1.58;;;6.00;94.30;;;;;;5021863;28;20555;-80
2021/12/07 14:12:56;;;;;;;3.53;1.90;;;6.10;94.20;;;;;;5022523;28;20068;-79
2021/12/07 14:15:25;;;;;;;3.70;2.10;;;6.10;94.10;;;;;;5013002;28;20054;-78
2021/12/07 14:17:54;;;;;;;4.57;2.03;;;6.20;93.10;;;;;;5023390;28;20049;-78
2021/12/07 14:20:34;;;;;;;3.35;1.95;;;6.10;91.60;;;;;;5021975;28;20501;-78
2021/12/07 14:23:02;;;;;;;3.95;2.10;;;6.10;92.00;;;;;;5021891;28;20060;-77
2021/12/07 14:25:30;;;;;;;3.17;1.88;;;6.00;92.50;;;;;;5027342;28;20053;-77
2021/12/07 14:27:58;;;;;;;3.05;1.70;;;6.00;92.90;;;;;;5024569;28;20065;-77
2021/12/07 14:30:25;;;;;;;2.55;1.90;;;6.00;93.10;;;;;;5016872;28;20431;-77
2021/12/07 14:32:52;;;;;;;;;;;5.90;93.30;;;;;;5024324;28;20069;-77
2021/12/07 14:35:19;;;;;;;;;;;5.90;93.50;;;;;;5024002;28;19956;-78
2021/12/07 14:37:45;;;;;;;;;;;5.80;93.60;;;;;;5024747;28;19972;-77
2021/12/07 14:40:12;;;;;;;;;;;5.80;93.80;;;;;;5019283;28;19925;-77
2021/12/07 14:42:40;;;;;;;;;;;5.70;93.90;;;;;;5023606;28;20400;-78
2021/12/07 14:45:08;;;;;;;;;;;5.70;94.00;;;;;;5021688;28;19999;-77
2021/12/07 14:47:34;;;;;;;;;;;5.70;94.10;;;;;;5024397;28;19926;-78
2021/12/07 14:50:01;;;;;;;;;;;5.60;94.20;;;;;;5023090;28;20403;-77
2021/12/07 14:52:29;;;;;;;;;;;5.60;94.40;;;;;;5022195;28;20028;-77
2021/12/07 14:54:56;;;;;;;;;;;5.50;94.50;;;;;;5025535;28;19932;-76
2021/12/07 14:57:23;;;;;;;;;;;5.50;94.30;;;;;;5022606;28;19928;-77
2021/12/07 14:59:52;;;;;;;;;;;5.40;93.70;;;;;;5023537;28;19975;-76
2021/12/07 15:02:19;;;;;;;;;;;5.40;93.80;;;;;;5020260;28;19929;-77
2021/12/07 15:04:45;;;;;;;;;;;5.40;94.10;;;;;;5021106;28;19983;-77
2021/12/07 15:07:13;;;;;;;;;;;5.50;94.40;;;;;;5020842;28;19933;-78
2021/12/07 15:09:40;;;;;;;;;;;5.50;94.70;;;;;;5021145;28;19929;-77
2021/12/07 15:12:07;;;;;;;;;;;5.50;94.90;;;;;;5012396;28;19925;-77
2021/12/07 15:14:34;;;;;;;;;;;5.50;95.10;;;;;;5020463;28;19925;-77
2021/12/07 15:17:04;;;;;;;;;;;5.60;95.30;;;;;;5019780;28;19925;-78
2021/12/07 15:19:31;;;;;;;;;;;5.60;95.40;;;;;;5021884;28;19970;-78
2021/12/07 15:21:59;;;;;;;;;;;5.60;95.50;;;;;;5018937;28;20594;-79
2021/12/07 15:24:26;;;;;;;;;;;5.70;95.50;;;;;;5023821;28;19932;-79
2021/12/07 15:26:53;;;;;;;;;;;5.70;95.60;;;;;;5023827;28;19936;-78
2021/12/07 15:29:21;;;;;;;;;;;5.70;95.60;;;;;;5023308;28;19932;-79
2021/12/07 15:31:48;;;;;;;;;;;5.70;95.60;;;;;;5017017;28;20404;-78
2021/12/07 15:34:18;;;;;;;;;;;5.70;95.60;;;;;;5018856;28;19925;-79
2021/12/07 15:36:45;;;;;;;;;;;5.70;95.60;;;;;;5018530;28;19968;-78
2021/12/07 15:39:14;;;;;;;;;;;5.70;95.60;;;;;;5019649;28;19929;-79
2021/12/07 15:41:41;;;;;;;;;;;5.80;95.70;;;;;;5020654;28;19936;-78
2021/12/07 15:44:08;;;;;;;;;;;5.80;95.70;;;;;;5023727;28;19951;-78
2021/12/07 15:46:35;;;;;;;;;;;5.70;95.70;;;;;;5015802;28;19933;-78
2021/12/07 15:49:02;;;;;;;;;;;5.70;95.60;;;;;;5021754;28;19971;-79
2021/12/07 15:51:29;;;;;;;;;;;5.80;95.70;;;;;;5016609;28;19933;-79
2021/12/07 15:53:56;;;;;;;;;;;5.70;95.60;;;;;;5021707;28;20302;-78
2021/12/07 15:56:24;;;;;;;;;;;5.70;95.60;;;;;;5016284;28;20043;-79
2021/12/07 15:58:51;;;;;;;;;;;5.70;95.60;;;;;;5019911;28;19929;-78
2021/12/07 16:01:17;;;;;;;;;;;5.70;95.60;;;;;;5018671;28;19925;-78
2021/12/07 16:03:45;;;;;;;;;;;5.70;95.60;;;;;;5019506;28;19925;-78
2021/12/07 16:06:16;;;;;;;;;;;5.70;95.60;;;;;;5023253;28;19925;-78
2021/12/07 16:08:44;;;;;;;;;;;5.70;95.60;;;;;;5021512;28;19975;-79
2021/12/07 16:11:13;;;;;;;;;;;5.70;95.60;;;;;;5023930;28;19932;-79
2021/12/07 16:13:40;;;;;;;;;;;5.70;95.90;;;;;;5026711;28;19954;-78
2021/12/07 16:16:08;;;;;;;;;;;5.70;95.60;;;;;;5021189;28;19925;-80
2021/12/07 16:18:35;;;;;;;;;;;5.70;95.60;;;;;;5021211;28;19932;-79
2021/12/07 16:21:02;;;;;;;;;;;5.60;95.60;;;;;;5023761;28;20408;-80
2021/12/07 16:23:28;;;;;;;;;;;5.60;95.60;;;;;;5025928;28;19936;-79